Flight Track Log - Related Links

Times and Time Zones

All times are in EDT time to prevent confusion due to time zone crossing. See the EGC695 flight status page for this flight to view local times or setup timezone preferences in your user account.

Time Position Orientation Groundspeed Altitude Reporting Facility
EDT Latitude Longitude Course Direction KTS MPH feet Rate Location/Type
Tue 02:51:31 PM 41.5547 -83.7050 228° Southwest 254 292 4,400  Level Cleveland Center
Tue 02:52:31 PM 41.4992 -83.7522 212° Southwest 253 291 7,300 2,700 Climbing Cleveland Center
Tue 02:53:31 PM 41.4514 -83.8219 228° Southwest 253 291 9,800 2,550 Climbing Cleveland Center
Tue 02:54:31 PM 41.4011 -83.8997 229° Southwest 264 304 12,400 2,600 Climbing Cleveland Center
Tue 02:55:31 PM 41.3508 -83.9772 229° Southwest 279 321 15,000 2,700 Climbing Cleveland Center
Tue 02:56:00 PM 41.2384 -84.3179 228° Southwest  Level Estimated
Tue 02:56:31 PM 41.2983 -84.0603 230° Southwest 279 321 17,800  Level Cleveland Center
Tue 02:57:50 PM 41.2403 -84.1603 232° Southwest 284 327 20,000 936 Climbing Chicago Center
Tue 02:58:52 PM 41.2131 -84.2739 252° West 322 371 20,000  Level Chicago Center
Tue 02:59:54 PM 41.1828 -84.3897 251° West 331 381 20,000  Level Chicago Center
Tue 03:00:56 PM 41.1539 -84.5036 251° West 327 376 20,000  Level Chicago Center
Tue 03:01:58 PM 41.1189 -84.6428 252° West 330 380 20,000  Level Chicago Center
Tue 03:03:00 PM 41.0897 -84.7589 252° West 332 382 20,000  Level Chicago Center
Tue 03:04:02 PM 41.0592 -84.8753 251° West 333 383 20,000  Level Chicago Center
Tue 03:05:04 PM 41.0297 -84.9914 251° West 333 383 20,000  Level Chicago Center
Tue 03:06:06 PM 40.9997 -85.1069 251° West 332 382 20,000  Level Chicago Center
Tue 03:07:08 PM 40.9492 -85.2050 236° Southwest 330 380 20,000  Level Chicago Center
Tue 03:08:11 PM 40.8700 -85.2978 222° Southwest 320 368 20,000  Level Chicago Center
Tue 03:09:13 PM 40.7994 -85.3711 218° Southwest 320 368 20,000  Level Chicago Center
Tue 03:10:15 PM 40.7294 -85.4422 218° Southwest 319 367 20,000 -48 Level Chicago Center
Tue 03:11:17 PM 40.6592 -85.5136 218° Southwest 317 365 19,900 -1,121 Descending Chicago Center
Tue 03:13:17 PM 40.5175 -85.6572 218° Southwest 322 371 16,600 -1,733 Descending Indianapolis Center
Tue 03:14:17 PM 40.4431 -85.7336 218° Southwest 323 372 14,700 -2,016 Descending Chicago Center
Tue 03:15:25 PM 40.3675 -85.8117 218° Southwest 310 357 12,300 -1,872 Descending Chicago Center
Tue 03:16:22 PM 40.3139 -85.8653 217° Southwest 303 349 10,800 -1,563 Descending Indianapolis Center
Tue 03:17:24 PM 40.2386 -85.9414 218° Southwest 291 335 9,200 -1,403 Descending Indianapolis Center
Tue 03:18:26 PM 40.1808 -85.9992 217° Southwest 277 319 7,900 -1,306 Descending Indianapolis Center
Tue 03:19:28 PM 40.1247 -86.0556 218° Southwest 265 305 6,500 -1,403 Descending Indianapolis Center
Tue 03:20:30 PM 40.0672 -86.1136 218° Southwest 262 302 5,000 -1,220 Descending Indianapolis Center
Tue 03:21:31 PM 40.0086 -86.1658 214° Southwest 260 299 4,000 -976 Descending Indianapolis Center
Tue 03:22:33 PM 39.9525 -86.2131 213° Southwest 251 289 3,000 -677 Descending Indianapolis Center
Tue 03:23:35 PM 39.8875 -86.2656 212° Southwest 240 276 2,600 -339 Descending Indianapolis Center
Tue 03:24:37 PM 39.8506 -86.3269 232° Southwest 239 275 2,300 -290 Descending Indianapolis Center

Login

Don't have an account? Register now (free) for customized features, flight alerts, and more!